createdAt,value
2017-05-14T00:00:16.117Z,31.7
2017-05-14T00:01:16.273Z,31.7
2017-05-14T00:02:14.775Z,31.7
2017-05-14T00:03:16.267Z,31.7
2017-05-14T00:04:16.704Z,31.7
2017-05-14T00:05:14.789Z,31.7
2017-05-14T00:06:14.795Z,31.7
2017-05-14T00:07:16.535Z,31.6
2017-05-14T00:08:14.932Z,31.7
2017-05-14T00:09:16.602Z,31.7
2017-05-14T00:10:17.066Z,31.6
2017-05-14T00:11:16.895Z,31.7
2017-05-14T00:12:16.790Z,31.6
2017-05-14T00:13:15.267Z,31.6
2017-05-14T00:14:16.994Z,31.6
2017-05-14T00:15:16.984Z,31.6
2017-05-14T00:16:17.349Z,31.6
2017-05-14T00:17:16.254Z,31.6
2017-05-14T00:18:17.259Z,31.6
2017-05-14T00:19:15.785Z,31.6
2017-05-14T00:20:17.269Z,31.6
2017-05-14T00:21:15.869Z,31.6
2017-05-14T00:22:17.705Z,31.6
2017-05-14T00:23:15.976Z,31.6
2017-05-14T00:24:17.489Z,31.6
2017-05-14T00:25:15.931Z,31.6
2017-05-14T00:26:17.441Z,31.6
2017-05-14T00:27:15.922Z,31.6
2017-05-14T00:28:16.328Z,31.6
2017-05-14T00:29:16.121Z,31.6
2017-05-14T00:30:17.596Z,31.6
2017-05-14T00:31:16.080Z,31.6
2017-05-14T00:32:17.790Z,31.6
2017-05-14T00:33:16.346Z,31.6
2017-05-14T00:34:18.133Z,31.6
2017-05-14T00:35:16.332Z,31.6
2017-05-14T00:36:18.065Z,31.6
2017-05-14T00:37:16.467Z,31.6
2017-05-14T00:38:16.508Z,31.6
2017-05-14T00:39:16.560Z,31.6
2017-05-14T00:40:18.462Z,31.6
2017-05-14T00:41:18.240Z,31.6
2017-05-14T00:42:16.771Z,31.6
2017-05-14T00:43:18.250Z,31.6
2017-05-14T00:44:16.829Z,31.6
2017-05-14T00:45:18.433Z,31.6
2017-05-14T00:46:18.835Z,31.6
2017-05-14T00:47:17.052Z,31.6
2017-05-14T00:48:16.944Z,31.6
2017-05-14T00:49:18.654Z,31.6
2017-05-14T00:50:17.109Z,31.6
2017-05-14T00:51:18.578Z,31.6
2017-05-14T00:52:18.948Z,31.6
2017-05-14T00:53:18.788Z,31.6
2017-05-14T00:54:17.198Z,31.6
2017-05-14T00:55:17.347Z,31.6
2017-05-14T00:56:18.911Z,31.6
2017-05-14T00:57:17.497Z,31.6
2017-05-14T00:58:19.331Z,31.6
2017-05-14T00:59:19.060Z,31.6
2017-05-14T01:00:19.865Z,31.6
2017-05-14T01:01:17.628Z,31.6
2017-05-14T01:02:19.226Z,31.6
2017-05-14T01:03:19.322Z,31.6
2017-05-14T01:04:18.001Z,31.6
2017-05-14T01:05:17.773Z,31.6
2017-05-14T01:06:17.984Z,31.6
2017-05-14T01:07:17.908Z,31.6
2017-05-14T01:08:19.678Z,31.6
2017-05-14T01:09:17.955Z,31.6
2017-05-14T01:10:18.218Z,31.6
2017-05-14T01:11:18.126Z,31.6
2017-05-14T01:12:18.090Z,31.6
2017-05-14T01:13:19.762Z,31.6
2017-05-14T01:14:19.956Z,31.6
2017-05-14T01:15:19.911Z,31.6
2017-05-14T01:16:18.749Z,31.6
2017-05-14T01:17:18.384Z,31.6
2017-05-14T01:18:18.485Z,31.6
2017-05-14T01:19:20.134Z,31.6
2017-05-14T01:20:18.585Z,31.6
2017-05-14T01:21:20.329Z,31.6
2017-05-14T01:22:20.485Z,31.6
2017-05-14T01:23:19.533Z,31.6
2017-05-14T01:24:18.779Z,31.6
2017-05-14T01:25:20.488Z,31.6
2017-05-14T01:26:18.985Z,31.5
2017-05-14T01:27:20.452Z,31.6
2017-05-14T01:28:19.122Z,31.6
2017-05-14T01:29:21.731Z,31.6
2017-05-14T01:30:18.920Z,31.6
2017-05-14T01:31:19.028Z,31.6
2017-05-14T01:32:20.717Z,31.5
2017-05-14T01:33:19.274Z,31.6
2017-05-14T01:34:21.179Z,31.6
2017-05-14T01:35:20.756Z,31.6
2017-05-14T01:36:20.837Z,31.6
2017-05-14T01:37:19.408Z,31.6
2017-05-14T01:38:21.043Z,31.5
2017-05-14T01:39:21.210Z,31.6
2017-05-14T01:40:21.433Z,31.6
2017-05-14T01:41:19.486Z,31.6
2017-05-14T01:42:19.549Z,31.5
2017-05-14T01:43:19.587Z,31.5
2017-05-14T01:44:21.348Z,31.5
2017-05-14T01:45:19.891Z,31.5
2017-05-14T01:46:21.569Z,31.5
2017-05-14T01:47:20.505Z,31.5
2017-05-14T01:48:21.519Z,31.5
2017-05-14T01:49:20.017Z,31.5
2017-05-14T01:50:21.559Z,31.5
2017-05-14T01:51:21.711Z,31.5
2017-05-14T01:52:22.048Z,31.5
2017-05-14T01:53:21.712Z,31.5
2017-05-14T01:54:21.863Z,31.6
2017-05-14T01:55:21.795Z,31.5
2017-05-14T01:56:21.904Z,31.5
2017-05-14T01:57:20.305Z,31.5
2017-05-14T01:58:20.793Z,31.5
2017-05-14T01:59:22.069Z,31.5
2017-05-14T02:00:20.625Z,31.5
2017-05-14T02:01:22.156Z,31.5
2017-05-14T02:02:21.378Z,31.5
2017-05-14T02:03:20.875Z,31.5
2017-05-14T02:04:21.024Z,31.5
2017-05-14T02:05:20.874Z,31.5
2017-05-14T02:06:20.837Z,31.5
2017-05-14T02:07:21.506Z,31.5
2017-05-14T02:08:21.590Z,31.5
2017-05-14T02:09:20.961Z,31.5
2017-05-14T02:10:23.024Z,31.5
2017-05-14T02:11:21.224Z,31.5
2017-05-14T02:12:22.756Z,31.5
2017-05-14T02:13:22.912Z,31.5
2017-05-14T02:14:24.114Z,31.5
2017-05-14T02:15:21.322Z,31.5
2017-05-14T02:16:23.309Z,31.5
2017-05-14T02:17:23.144Z,31.5
2017-05-14T02:18:21.692Z,31.5
2017-05-14T02:19:21.556Z,31.5
2017-05-14T02:20:23.140Z,31.5
2017-05-14T02:21:22.184Z,31.5
2017-05-14T02:22:22.074Z,31.5
2017-05-14T02:23:21.637Z,31.5
2017-05-14T02:24:23.232Z,31.5
2017-05-14T02:25:23.368Z,31.4
2017-05-14T02:26:21.859Z,31.5
2017-05-14T02:27:23.472Z,31.5
2017-05-14T02:28:23.719Z,31.5
2017-05-14T02:29:21.963Z,31.5
2017-05-14T02:30:23.456Z,31.5
2017-05-14T02:31:22.007Z,31.5
2017-05-14T02:32:22.065Z,31.5
2017-05-14T02:33:21.994Z,31.5
2017-05-14T02:34:23.996Z,31.5
2017-05-14T02:35:23.643Z,31.5
2017-05-14T02:36:22.078Z,31.5
2017-05-14T02:37:23.753Z,31.4
2017-05-14T02:38:22.118Z,31.4
2017-05-14T02:39:22.342Z,31.5
2017-05-14T02:40:22.568Z,31.5
2017-05-14T02:41:22.504Z,31.4
2017-05-14T02:42:24.046Z,31.4
2017-05-14T02:43:24.079Z,31.4
2017-05-14T02:44:22.719Z,31.4
2017-05-14T02:45:24.258Z,31.4
2017-05-14T02:46:23.158Z,31.4
2017-05-14T02:47:24.325Z,31.4
2017-05-14T02:48:24.370Z,31.4
2017-05-14T02:49:24.503Z,31.4
2017-05-14T02:50:22.833Z,31.4
2017-05-14T02:51:24.680Z,31.4
2017-05-14T02:52:23.295Z,31.4
2017-05-14T02:53:24.778Z,31.4
2017-05-14T02:54:23.270Z,31.4
2017-05-14T02:55:23.258Z,31.4
2017-05-14T02:56:24.906Z,31.4
2017-05-14T02:57:23.402Z,31.4
2017-05-14T02:58:23.770Z,31.4
2017-05-14T02:59:23.416Z,31.4
2017-05-14T03:00:25.135Z,31.4
2017-05-14T03:01:23.626Z,31.4
2017-05-14T03:02:23.566Z,31.4
2017-05-14T03:03:25.375Z,31.4
2017-05-14T03:04:24.130Z,31.4
2017-05-14T03:05:25.455Z,31.4
2017-05-14T03:06:23.793Z,31.4
2017-05-14T03:07:23.996Z,31.4
2017-05-14T03:08:25.659Z,31.4
2017-05-14T03:09:24.202Z,31.4
2017-05-14T03:10:24.480Z,31.4
2017-05-14T03:11:25.873Z,31.4
2017-05-14T03:12:24.207Z,31.4
2017-05-14T03:13:25.886Z,31.4
2017-05-14T03:14:26.089Z,31.4
2017-05-14T03:15:24.417Z,31.4
2017-05-14T03:16:26.484Z,31.4
2017-05-14T03:17:24.562Z,31.3
2017-05-14T03:18:24.551Z,31.3
2017-05-14T03:19:24.686Z,31.4
2017-05-14T03:20:24.540Z,31.4
2017-05-14T03:21:26.243Z,31.4
2017-05-14T03:22:26.532Z,31.4
2017-05-14T03:23:24.713Z,31.4
2017-05-14T03:24:24.727Z,31.4
2017-05-14T03:25:24.789Z,31.4
2017-05-14T03:26:26.398Z,31.4
2017-05-14T03:27:27.018Z,31.4
2017-05-14T03:28:26.920Z,31.3
2017-05-14T03:29:25.126Z,31.4
2017-05-14T03:30:25.050Z,31.4
2017-05-14T03:31:26.685Z,31.4
2017-05-14T03:32:25.233Z,31.4
2017-05-14T03:33:26.918Z,31.4
2017-05-14T03:34:27.253Z,31.4
2017-05-14T03:35:26.993Z,31.4
2017-05-14T03:36:27.045Z,31.3
2017-05-14T03:37:25.393Z,31.3
2017-05-14T03:38:25.634Z,31.3
2017-05-14T03:39:25.612Z,31.3
2017-05-14T03:40:27.498Z,31.3
2017-05-14T03:41:27.279Z,31.3
2017-05-14T03:42:25.607Z,31.3
2017-05-14T03:43:27.348Z,31.3
2017-05-14T03:44:25.875Z,31.3
2017-05-14T03:45:27.455Z,31.3
2017-05-14T03:46:27.859Z,31.3
2017-05-14T03:47:25.893Z,31.3
2017-05-14T03:48:26.093Z,31.3
2017-05-14T03:49:27.543Z,31.3
2017-05-14T03:50:25.938Z,31.3
2017-05-14T03:51:27.746Z,31.3
2017-05-14T03:52:27.949Z,31.3
2017-05-14T03:53:27.766Z,31.3
2017-05-14T03:54:27.930Z,31.3
2017-05-14T03:55:26.367Z,31.3
2017-05-14T03:56:27.926Z,31.3
2017-05-14T03:57:26.282Z,31.3
2017-05-14T03:58:26.635Z,31.3
2017-05-14T03:59:26.435Z,31.3
2017-05-14T04:00:28.200Z,31.3
2017-05-14T04:01:26.699Z,31.3
2017-05-14T04:02:26.623Z,31.3
2017-05-14T04:03:28.224Z,31.3
2017-05-14T04:04:27.065Z,31.3
2017-05-14T04:05:28.401Z,31.3
2017-05-14T04:06:28.341Z,31.3
2017-05-14T04:07:26.864Z,31.3
2017-05-14T04:08:26.857Z,31.3
2017-05-14T04:09:28.652Z,31.3
2017-05-14T04:10:28.774Z,31.3
2017-05-14T04:11:28.502Z,31.3
2017-05-14T04:12:27.011Z,31.3
2017-05-14T04:13:28.718Z,31.3
2017-05-14T04:14:28.851Z,31.3
2017-05-14T04:15:28.928Z,31.3
2017-05-14T04:16:27.664Z,31.3
2017-05-14T04:17:27.343Z,31.3
2017-05-14T04:18:27.374Z,31.3
2017-05-14T04:19:29.095Z,31.3
2017-05-14T04:20:27.498Z,31.3
2017-05-14T04:21:27.514Z,31.3
2017-05-14T04:22:29.956Z,31.3
2017-05-14T04:23:27.688Z,31.4
2017-05-14T04:24:29.393Z,31.4
2017-05-14T04:25:29.532Z,31.4
2017-05-14T04:26:29.571Z,31.4
2017-05-14T04:27:29.892Z,31.4
2017-05-14T04:28:28.172Z,31.4
2017-05-14T04:29:28.107Z,31.3
2017-05-14T04:30:29.798Z,31.4
2017-05-14T04:31:29.914Z,31.4
2017-05-14T04:32:29.890Z,31.3
2017-05-14T04:33:28.739Z,31.4
2017-05-14T04:34:29.949Z,31.4
2017-05-14T04:35:30.032Z,31.3
2017-05-14T04:36:30.133Z,31.4
2017-05-14T04:37:30.168Z,31.4
2017-05-14T04:38:30.350Z,31.4
2017-05-14T04:39:30.678Z,31.4
2017-05-14T04:40:28.706Z,31.4
2017-05-14T04:41:30.306Z,31.4
2017-05-14T04:42:30.399Z,31.4
2017-05-14T04:43:30.611Z,31.4
2017-05-14T04:44:30.691Z,31.4
2017-05-14T04:45:29.445Z,31.4
2017-05-14T04:46:29.080Z,31.4
2017-05-14T04:47:30.654Z,31.4
2017-05-14T04:48:29.162Z,31.4
2017-05-14T04:49:29.432Z,31.4
2017-05-14T04:50:29.265Z,31.4
2017-05-14T04:51:31.304Z,31.4
2017-05-14T04:52:29.418Z,31.5
2017-05-14T04:53:29.488Z,31.5
2017-05-14T04:54:29.732Z,31.4
2017-05-14T04:55:31.379Z,31.5
2017-05-14T04:56:29.883Z,31.5
2017-05-14T04:57:31.601Z,31.5
2017-05-14T04:58:31.394Z,31.5
2017-05-14T04:59:31.544Z,31.5
2017-05-14T05:00:29.961Z,31.5
2017-05-14T05:01:30.058Z,31.5
2017-05-14T05:02:31.731Z,31.5
2017-05-14T05:03:30.367Z,31.5
2017-05-14T05:04:31.782Z,31.5
2017-05-14T05:05:30.374Z,31.5
2017-05-14T05:06:31.843Z,31.5
2017-05-14T05:07:31.143Z,31.5
2017-05-14T05:08:31.973Z,31.5
2017-05-14T05:09:30.689Z,31.6
2017-05-14T05:10:32.134Z,31.6
2017-05-14T05:11:30.618Z,31.6
2017-05-14T05:12:32.262Z,31.6
2017-05-14T05:13:30.772Z,31.6
2017-05-14T05:14:32.435Z,31.6
2017-05-14T05:15:31.055Z,31.6
2017-05-14T05:16:32.556Z,31.6
2017-05-14T05:17:31.071Z,31.6
2017-05-14T05:18:31.151Z,31.7
2017-05-14T05:19:31.025Z,31.7
2017-05-14T05:20:32.838Z,31.7
2017-05-14T05:21:31.588Z,31.7
2017-05-14T05:22:32.935Z,31.7
2017-05-14T05:23:33.013Z,31.7
2017-05-14T05:24:31.385Z,31.7
2017-05-14T05:25:33.180Z,31.7
2017-05-14T05:26:31.654Z,31.7
2017-05-14T05:27:33.530Z,31.7
2017-05-14T05:28:33.228Z,31.7
2017-05-14T05:29:33.227Z,31.8
2017-05-14T05:30:33.231Z,31.8
2017-05-14T05:31:31.795Z,31.8
2017-05-14T05:32:33.435Z,31.7
2017-05-14T05:33:33.800Z,31.8
2017-05-14T05:34:33.438Z,31.8
2017-05-14T05:35:31.865Z,31.7
2017-05-14T05:36:33.565Z,31.8
2017-05-14T05:37:32.083Z,31.8
2017-05-14T05:38:32.025Z,31.7
2017-05-14T05:39:32.186Z,31.8
2017-05-14T05:40:33.656Z,31.8
2017-05-14T05:41:32.027Z,31.8
2017-05-14T05:42:32.214Z,31.8
2017-05-14T05:43:33.862Z,31.8
2017-05-14T05:44:33.778Z,31.8
2017-05-14T05:45:34.208Z,31.8
2017-05-14T05:46:33.807Z,31.8
2017-05-14T05:47:34.045Z,31.8
2017-05-14T05:48:34.037Z,31.8
2017-05-14T05:49:34.178Z,31.8
2017-05-14T05:50:34.227Z,31.9
2017-05-14T05:51:32.891Z,31.9
2017-05-14T05:52:34.297Z,31.9
2017-05-14T05:53:32.723Z,31.9
2017-05-14T05:54:34.407Z,31.9
2017-05-14T05:55:33.043Z,31.9
2017-05-14T05:56:33.359Z,32
2017-05-14T05:57:33.012Z,32
2017-05-14T05:58:33.047Z,32
2017-05-14T05:59:34.762Z,32
2017-05-14T06:00:34.801Z,32
2017-05-14T06:01:34.852Z,31.9
2017-05-14T06:02:35.105Z,32
2017-05-14T06:03:33.314Z,31.9
2017-05-14T06:04:33.422Z,32
2017-05-14T06:05:33.567Z,31.9
2017-05-14T06:06:33.571Z,32
2017-05-14T06:07:33.446Z,32
2017-05-14T06:08:33.747Z,32
2017-05-14T06:09:35.278Z,32
2017-05-14T06:10:35.375Z,32
2017-05-14T06:11:33.838Z,32
2017-05-14T06:12:33.757Z,32
2017-05-14T06:13:33.978Z,32
2017-05-14T06:14:34.248Z,32
2017-05-14T06:15:35.468Z,32
2017-05-14T06:16:34.095Z,32
2017-05-14T06:17:35.763Z,32
2017-05-14T06:18:35.789Z,32
2017-05-14T06:19:35.732Z,32
2017-05-14T06:20:36.002Z,32
2017-05-14T06:21:34.311Z,32
2017-05-14T06:22:34.234Z,32
2017-05-14T06:23:35.834Z,32
2017-05-14T06:24:34.487Z,32
2017-05-14T06:25:34.358Z,32
2017-05-14T06:26:34.817Z,32
2017-05-14T06:27:34.439Z,32.1
2017-05-14T06:28:36.153Z,32
2017-05-14T06:29:34.629Z,32.1
2017-05-14T06:30:36.160Z,32.1
2017-05-14T06:31:36.378Z,32
2017-05-14T06:32:35.148Z,32.1
2017-05-14T06:33:34.909Z,32.1
2017-05-14T06:34:36.470Z,32.1
2017-05-14T06:35:36.512Z,32.1
2017-05-14T06:36:36.501Z,32.1
2017-05-14T06:37:35.138Z,32.2
2017-05-14T06:38:35.358Z,32.2
2017-05-14T06:39:35.262Z,32.2
2017-05-14T06:40:35.224Z,32.3
2017-05-14T06:41:35.368Z,32.3
2017-05-14T06:42:35.295Z,32.4
2017-05-14T06:43:35.381Z,32.4
2017-05-14T06:44:37.458Z,32.4
2017-05-14T06:45:37.095Z,32.5
2017-05-14T06:46:35.676Z,32.5
2017-05-14T06:47:35.786Z,32.5
2017-05-14T06:48:35.795Z,32.5
2017-05-14T06:49:37.490Z,32.6
2017-05-14T06:50:36.107Z,32.6
2017-05-14T06:51:36.055Z,32.6
2017-05-14T06:52:37.732Z,32.7
2017-05-14T06:53:36.193Z,32.7
2017-05-14T06:54:37.805Z,32.7
2017-05-14T06:55:37.882Z,32.7
2017-05-14T06:56:38.193Z,32.8
2017-05-14T06:57:37.948Z,32.8
2017-05-14T06:58:36.304Z,32.8
2017-05-14T06:59:38.085Z,32.8
2017-05-14T07:00:36.584Z,32.8
2017-05-14T07:01:38.233Z,32.9
2017-05-14T07:02:38.584Z,32.9
2017-05-14T07:03:38.257Z,32.9
2017-05-14T07:04:38.454Z,32.9
2017-05-14T07:05:38.546Z,32.9
2017-05-14T07:06:37.645Z,33
2017-05-14T07:07:37.390Z,33
2017-05-14T07:08:38.636Z,33
2017-05-14T07:09:37.260Z,33
2017-05-14T07:10:37.312Z,33
2017-05-14T07:11:38.849Z,33
2017-05-14T07:12:38.983Z,33.1
2017-05-14T07:13:37.854Z,33.1
2017-05-14T07:14:37.471Z,33.1
2017-05-14T07:15:37.656Z,33.1
2017-05-14T07:16:39.177Z,33.1
2017-05-14T07:17:39.379Z,33.1
2017-05-14T07:18:37.735Z,33
2017-05-14T07:19:38.149Z,33.1
2017-05-14T07:20:39.506Z,33.1
2017-05-14T07:21:38.067Z,33.1
2017-05-14T07:22:39.731Z,33.1
2017-05-14T07:23:39.768Z,33.1
2017-05-14T07:24:39.698Z,33.1
2017-05-14T07:25:40.147Z,33.1
2017-05-14T07:26:38.195Z,33.1
2017-05-14T07:27:39.871Z,33.1
2017-05-14T07:28:40.005Z,33.1
2017-05-14T07:29:40.088Z,33.1
2017-05-14T07:30:38.571Z,33.1
2017-05-14T07:31:40.438Z,33
2017-05-14T07:32:40.151Z,33
2017-05-14T07:33:38.590Z,33
2017-05-14T07:34:40.289Z,33
2017-05-14T07:35:40.336Z,33
2017-05-14T07:36:40.311Z,33
2017-05-14T07:37:39.138Z,33
2017-05-14T07:38:40.397Z,33.1
2017-05-14T07:39:40.471Z,33.1
2017-05-14T07:40:39.038Z,33.1
2017-05-14T07:41:38.904Z,33.1
2017-05-14T07:42:41.267Z,33
2017-05-14T07:43:40.932Z,33
2017-05-14T07:44:40.839Z,33
2017-05-14T07:45:40.818Z,33.1
2017-05-14T07:46:40.757Z,33.1
2017-05-14T07:47:40.974Z,33.1
2017-05-14T07:48:40.885Z,33.1
2017-05-14T07:49:41.187Z,33.1
2017-05-14T07:50:41.017Z,33.1
2017-05-14T07:51:39.382Z,33.2
2017-05-14T07:52:41.112Z,33.2
2017-05-14T07:53:39.612Z,33.2
2017-05-14T07:54:39.679Z,33.2
2017-05-14T07:55:41.458Z,33.3
2017-05-14T07:56:39.731Z,33.3
2017-05-14T07:57:39.745Z,33.3
2017-05-14T07:58:41.320Z,33.3
2017-05-14T07:59:39.864Z,33.4
2017-05-14T08:00:39.778Z,33.4
2017-05-14T08:01:42.308Z,33.5
2017-05-14T08:02:39.864Z,33.5
2017-05-14T08:03:41.586Z,33.6
2017-05-14T08:04:41.645Z,33.6
2017-05-14T08:05:40.126Z,33.6
2017-05-14T08:06:41.852Z,33.7
2017-05-14T08:07:40.664Z,33.6
2017-05-14T08:08:40.471Z,33.7
2017-05-14T08:09:41.915Z,33.7
2017-05-14T08:10:42.073Z,33.6
2017-05-14T08:11:40.549Z,33.5
2017-05-14T08:12:40.417Z,33.4
2017-05-14T08:13:42.488Z,33.4
2017-05-14T08:14:42.070Z,33.3
2017-05-14T08:15:42.256Z,33.2
2017-05-14T08:16:42.191Z,33.2
2017-05-14T08:17:42.354Z,33.2
2017-05-14T08:18:40.735Z,33.1
2017-05-14T08:19:42.767Z,33.1
2017-05-14T08:20:40.840Z,33.1
2017-05-14T08:21:40.878Z,33
2017-05-14T08:22:41.057Z,33
2017-05-14T08:23:41.038Z,33
2017-05-14T08:24:42.755Z,33
2017-05-14T08:25:41.442Z,32.9
2017-05-14T08:26:41.265Z,33
2017-05-14T08:27:42.989Z,33
2017-05-14T08:28:42.989Z,33
2017-05-14T08:29:43.006Z,33
2017-05-14T08:30:41.443Z,33
2017-05-14T08:31:43.311Z,33
2017-05-14T08:32:43.031Z,33
2017-05-14T08:33:41.439Z,33
2017-05-14T08:34:43.146Z,33
2017-05-14T08:35:41.641Z,32.9
2017-05-14T08:36:43.208Z,32.9
2017-05-14T08:37:43.712Z,32.9
2017-05-14T08:38:41.815Z,32.9
2017-05-14T08:39:41.836Z,32.8
2017-05-14T08:40:41.723Z,32.8
2017-05-14T08:41:41.908Z,32.8
2017-05-14T08:42:43.493Z,32.8
2017-05-14T08:43:42.237Z,32.8
2017-05-14T08:44:43.416Z,32.8
2017-05-14T08:45:41.867Z,32.7
2017-05-14T08:46:43.697Z,32.7
2017-05-14T08:47:43.591Z,32.7
2017-05-14T08:48:42.234Z,32.7
2017-05-14T08:49:42.528Z,32.7
2017-05-14T08:50:42.883Z,32.7
2017-05-14T08:51:42.365Z,32.7
2017-05-14T08:52:42.238Z,32.6
2017-05-14T08:53:42.407Z,32.6
2017-05-14T08:54:42.298Z,32.6
2017-05-14T08:55:42.730Z,32.6
2017-05-14T08:56:42.589Z,32.6
2017-05-14T08:57:44.105Z,32.6
2017-05-14T08:58:44.279Z,32.6
2017-05-14T08:59:44.335Z,32.5
2017-05-14T09:00:44.395Z,32.6
2017-05-14T09:01:44.604Z,32.6
2017-05-14T09:02:42.740Z,32.5
2017-05-14T09:03:44.527Z,32.5
2017-05-14T09:04:44.396Z,32.5
2017-05-14T09:05:42.994Z,32.5
2017-05-14T09:06:42.855Z,32.5
2017-05-14T09:07:44.776Z,32.5
2017-05-14T09:08:44.620Z,32.5
2017-05-14T09:09:43.007Z,32.5
2017-05-14T09:10:43.030Z,32.5
2017-05-14T09:11:44.678Z,32.5
2017-05-14T09:12:44.717Z,32.5
2017-05-14T09:13:45.211Z,32.5
2017-05-14T09:14:43.457Z,32.4
2017-05-14T09:15:45.063Z,32.4
2017-05-14T09:16:43.500Z,32.4
2017-05-14T09:17:44.987Z,32.4
2017-05-14T09:18:45.035Z,32.4
2017-05-14T09:19:43.700Z,32.4
2017-05-14T09:20:45.045Z,32.4
2017-05-14T09:21:43.659Z,32.4
2017-05-14T09:22:45.148Z,32.4
2017-05-14T09:23:45.179Z,32.4
2017-05-14T09:24:43.769Z,32.4
2017-05-14T09:25:45.638Z,32.4
2017-05-14T09:26:43.710Z,32.4
2017-05-14T09:27:43.787Z,32.4
2017-05-14T09:28:43.808Z,32.3
2017-05-14T09:29:45.532Z,32.4
2017-05-14T09:30:44.046Z,32.3
2017-05-14T09:31:45.855Z,32.4
2017-05-14T09:32:45.548Z,32.4
2017-05-14T09:33:44.149Z,32.4
2017-05-14T09:34:44.025Z,32.3
2017-05-14T09:35:45.653Z,32.4
2017-05-14T09:36:45.694Z,32.3
2017-05-14T09:37:44.665Z,32.4
2017-05-14T09:38:44.305Z,32.3
2017-05-14T09:39:44.341Z,32.4
2017-05-14T09:40:45.826Z,32.3
2017-05-14T09:41:44.265Z,32.4
2017-05-14T09:42:44.427Z,32.4
2017-05-14T09:43:44.622Z,32.4
2017-05-14T09:44:45.966Z,32.4
2017-05-14T09:45:46.104Z,32.4
2017-05-14T09:46:44.476Z,32.4
2017-05-14T09:47:46.270Z,32.3
2017-05-14T09:48:44.711Z,32.3
2017-05-14T09:49:46.521Z,32.3
2017-05-14T09:50:46.391Z,32.3
2017-05-14T09:51:44.853Z,32.3
2017-05-14T09:52:44.815Z,32.3
2017-05-14T09:53:46.456Z,32.3
2017-05-14T09:54:44.948Z,32.3
2017-05-14T09:55:45.237Z,32.3
2017-05-14T09:56:45.082Z,32.3
2017-05-14T09:57:45.102Z,32.3
2017-05-14T09:58:46.885Z,32.3
2017-05-14T09:59:45.365Z,32.2
2017-05-14T10:00:45.387Z,32.3
2017-05-14T10:01:47.287Z,32.2
2017-05-14T10:02:45.493Z,32.3
2017-05-14T10:03:45.498Z,32.3
2017-05-14T10:04:45.493Z,32.3
2017-05-14T10:05:45.531Z,32.3
2017-05-14T10:06:47.046Z,32.2
2017-05-14T10:07:47.416Z,32.2
2017-05-14T10:08:47.335Z,32.3
2017-05-14T10:09:45.765Z,32.4
2017-05-14T10:10:45.795Z,32.5
2017-05-14T10:11:47.257Z,32.5
2017-05-14T10:12:45.733Z,32.6
2017-05-14T10:13:46.037Z,32.7
2017-05-14T10:14:47.456Z,32.8
2017-05-14T10:15:46.028Z,32.9
2017-05-14T10:16:45.898Z,33
2017-05-14T10:17:45.970Z,33
2017-05-14T10:18:46.148Z,33.1
2017-05-14T10:19:48.086Z,33.2
2017-05-14T10:20:46.737Z,33.2
2017-05-14T10:21:46.307Z,33.2
2017-05-14T10:22:47.814Z,33.3
2017-05-14T10:23:47.887Z,33.3
2017-05-14T10:24:46.425Z,33.4
2017-05-14T10:25:48.471Z,33.4
2017-05-14T10:26:46.644Z,33.4
2017-05-14T10:27:46.665Z,33.4
2017-05-14T10:28:46.718Z,33.5
2017-05-14T10:29:48.322Z,33.6
2017-05-14T10:30:48.232Z,33.6
2017-05-14T10:31:47.129Z,33.7
2017-05-14T10:32:46.955Z,33.7
2017-05-14T10:33:46.991Z,33.8
2017-05-14T10:34:48.555Z,33.9
2017-05-14T10:35:48.521Z,34
2017-05-14T10:36:46.966Z,34.2
2017-05-14T10:37:47.419Z,34.3
2017-05-14T10:38:47.227Z,34.4
2017-05-14T10:39:47.113Z,34.5
2017-05-14T10:40:47.264Z,34.6
2017-05-14T10:41:48.727Z,34.7
2017-05-14T10:42:48.883Z,34.8
2017-05-14T10:43:47.513Z,34.9
2017-05-14T10:44:47.386Z,35.1
2017-05-14T10:45:47.335Z,35.2
2017-05-14T10:46:49.026Z,35.5
2017-05-14T10:47:49.179Z,35.7
2017-05-14T10:48:49.172Z,35.9
2017-05-14T10:49:47.916Z,36.1
2017-05-14T10:50:47.718Z,36.4
2017-05-14T10:51:47.894Z,36.8
2017-05-14T10:52:49.374Z,37.3
2017-05-14T10:53:47.871Z,37.9
2017-05-14T10:54:48.104Z,38.5
2017-05-14T10:55:49.872Z,39.1
2017-05-14T10:56:48.183Z,39.7
2017-05-14T10:57:49.712Z,40.6
2017-05-14T10:58:49.896Z,41.2
2017-05-14T10:59:48.274Z,41.4
2017-05-14T11:00:49.918Z,40.8
2017-05-14T11:01:50.425Z,40
2017-05-14T11:02:48.559Z,39.2
2017-05-14T11:03:50.255Z,38.5
2017-05-14T11:04:50.189Z,37.9
2017-05-14T11:05:50.351Z,37.3
2017-05-14T11:06:48.693Z,36.8
2017-05-14T11:07:50.770Z,36.4
2017-05-14T11:08:50.602Z,36
2017-05-14T11:09:49.100Z,35.8
2017-05-14T11:10:50.702Z,35.5
2017-05-14T11:11:50.720Z,35.2
2017-05-14T11:12:49.140Z,35.1
2017-05-14T11:13:51.108Z,34.8
2017-05-14T11:14:49.331Z,34.7
2017-05-14T11:15:49.347Z,34.6
2017-05-14T11:16:50.803Z,34.4
2017-05-14T11:17:50.955Z,34.3
2017-05-14T11:18:51.032Z,34.2
2017-05-14T11:19:51.418Z,34.1
2017-05-14T11:20:51.109Z,34
2017-05-14T11:21:51.245Z,34
2017-05-14T11:22:51.367Z,33.9
2017-05-14T11:23:49.925Z,33.8
2017-05-14T11:24:51.474Z,33.7
2017-05-14T11:25:50.238Z,33.7
2017-05-14T11:26:49.961Z,33.6
2017-05-14T11:27:51.567Z,33.6
2017-05-14T11:28:51.655Z,33.5
2017-05-14T11:29:51.710Z,33.5
2017-05-14T11:30:50.176Z,33.5
2017-05-14T11:31:50.515Z,33.4
2017-05-14T11:32:50.246Z,33.3
2017-05-14T11:33:50.243Z,33.3
2017-05-14T11:34:50.267Z,33.3
2017-05-14T11:35:50.343Z,33.3
2017-05-14T11:36:51.955Z,33.3
2017-05-14T11:37:50.849Z,33.2
2017-05-14T11:38:50.590Z,33.2
2017-05-14T11:39:50.487Z,33.2
2017-05-14T11:40:50.685Z,33.2
2017-05-14T11:41:52.266Z,33.2
2017-05-14T11:42:52.396Z,33.2
2017-05-14T11:43:51.104Z,33.1
2017-05-14T11:44:52.410Z,33.1
2017-05-14T11:45:52.636Z,33.1
2017-05-14T11:46:52.593Z,33.1
2017-05-14T11:47:50.973Z,33.1
2017-05-14T11:48:51.082Z,33
2017-05-14T11:49:53.037Z,33
2017-05-14T11:50:51.212Z,33
2017-05-14T11:51:51.249Z,33
2017-05-14T11:52:52.860Z,33
2017-05-14T11:53:51.334Z,33
2017-05-14T11:54:52.876Z,33
2017-05-14T11:55:53.292Z,33
2017-05-14T11:56:53.077Z,33
2017-05-14T11:57:53.089Z,33
2017-05-14T11:58:51.577Z,33
2017-05-14T11:59:53.424Z,33
2017-05-14T12:00:53.495Z,33
2017-05-14T12:01:53.801Z,32.9
2017-05-14T12:02:52.520Z,32.9
2017-05-14T12:03:53.440Z,32.9
2017-05-14T12:04:51.859Z,32.9
2017-05-14T12:05:51.944Z,32.9
2017-05-14T12:06:53.721Z,32.9
2017-05-14T12:07:53.920Z,32.9
2017-05-14T12:08:52.238Z,32.8
2017-05-14T12:09:53.751Z,32.8
2017-05-14T12:10:53.797Z,32.8
2017-05-14T12:11:53.867Z,32.8
2017-05-14T12:12:52.294Z,32.8
2017-05-14T12:13:52.570Z,32.8
2017-05-14T12:14:54.108Z,32.7
2017-05-14T12:15:54.116Z,32.8
2017-05-14T12:16:52.634Z,32.8
2017-05-14T12:17:52.655Z,32.8
2017-05-14T12:18:52.706Z,32.8
2017-05-14T12:19:52.878Z,32.8
2017-05-14T12:20:52.754Z,32.7
2017-05-14T12:21:54.420Z,32.7
2017-05-14T12:22:54.489Z,32.7
2017-05-14T12:23:54.600Z,32.7
2017-05-14T12:24:52.863Z,32.7
2017-05-14T12:25:54.733Z,32.7
2017-05-14T12:26:53.040Z,32.7
2017-05-14T12:27:54.539Z,32.7
2017-05-14T12:28:53.160Z,32.7
2017-05-14T12:29:54.795Z,32.7
2017-05-14T12:30:53.079Z,32.7
2017-05-14T12:31:53.548Z,32.7
2017-05-14T12:32:54.841Z,32.7
2017-05-14T12:33:53.239Z,32.7
2017-05-14T12:34:54.901Z,32.7
2017-05-14T12:35:53.337Z,32.7
2017-05-14T12:36:55.144Z,32.7
2017-05-14T12:37:55.516Z,32.7
2017-05-14T12:38:53.783Z,32.7
2017-05-14T12:39:53.811Z,32.7
2017-05-14T12:40:53.889Z,32.7
2017-05-14T12:41:55.321Z,32.7
2017-05-14T12:42:55.515Z,32.6
2017-05-14T12:43:55.804Z,32.7
2017-05-14T12:44:55.595Z,32.7
2017-05-14T12:45:55.593Z,32.7
2017-05-14T12:46:54.191Z,32.7
2017-05-14T12:47:54.192Z,32.6
2017-05-14T12:48:55.799Z,32.7
2017-05-14T12:49:54.472Z,32.7
2017-05-14T12:50:54.340Z,32.7
2017-05-14T12:51:55.828Z,32.7
2017-05-14T12:52:56.014Z,32.6
2017-05-14T12:53:54.529Z,32.7
2017-05-14T12:54:54.428Z,32.7
2017-05-14T12:55:56.341Z,32.7
2017-05-14T12:56:54.628Z,32.7
2017-05-14T12:57:56.268Z,32.7
2017-05-14T12:58:56.333Z,32.7
2017-05-14T12:59:56.196Z,32.7
2017-05-14T13:00:56.270Z,32.7
2017-05-14T13:01:54.974Z,32.7
2017-05-14T13:02:57.480Z,32.7
2017-05-14T13:03:55.421Z,32.7
2017-05-14T13:04:56.591Z,32.7
2017-05-14T13:05:54.948Z,32.7
2017-05-14T13:06:55.076Z,32.7
2017-05-14T13:07:56.851Z,32.7
2017-05-14T13:08:55.176Z,32.6
2017-05-14T13:09:56.742Z,32.6
2017-05-14T13:10:55.081Z,32.6
2017-05-14T13:11:55.105Z,32.6
2017-05-14T13:12:56.954Z,32.6
2017-05-14T13:13:55.558Z,32.7
2017-05-14T13:14:57.006Z,32.7
2017-05-14T13:15:55.522Z,32.6
2017-05-14T13:16:55.390Z,32.7
2017-05-14T13:17:55.659Z,32.7
2017-05-14T13:18:57.266Z,32.7
2017-05-14T13:19:56.013Z,32.7
2017-05-14T13:20:57.311Z,32.7
2017-05-14T13:21:57.348Z,32.6
2017-05-14T13:22:57.434Z,32.6
2017-05-14T13:23:55.955Z,32.6